createdAt,value
2024-02-13T00:02:51.133Z,99405.67
2024-02-13T00:07:53.215Z,99410.80
2024-02-13T00:12:54.840Z,99416.34
2024-02-13T00:17:56.567Z,99418.50
2024-02-13T00:23:00.617Z,99421.28
2024-02-13T00:28:02.276Z,99421.23
2024-02-13T00:33:06.618Z,99429.13
2024-02-13T00:38:09.295Z,99434.06
2024-02-13T00:43:11.046Z,99438.71
2024-02-13T00:48:12.794Z,99444.98
2024-02-13T00:53:17.176Z,99449.33
2024-02-13T00:58:18.872Z,99452.50
2024-02-13T01:03:24.089Z,99456.28
2024-02-13T01:08:25.745Z,99464.92
2024-02-13T01:13:27.537Z,99471.64
2024-02-13T01:18:30.571Z,99476.95
2024-02-13T01:23:34.194Z,99478.59
2024-02-13T01:28:36.717Z,99482.76
2024-02-13T01:33:38.600Z,99478.88
2024-02-13T01:38:40.372Z,99477.68
2024-02-13T01:43:42.184Z,99485.73
2024-02-13T01:48:44.002Z,99489.91
2024-02-13T01:53:46.515Z,99494.90
2024-02-13T01:58:50.016Z,99500.42
2024-02-13T02:03:54.102Z,99500.48
2024-02-13T02:08:58.041Z,99501.90
2024-02-13T02:14:01.656Z,99504.23
2024-02-13T02:19:04.314Z,99510.27
2024-02-13T02:24:07.641Z,99513.77
2024-02-13T02:29:09.942Z,99521.28
2024-02-13T02:34:11.964Z,99520.36
2024-02-13T02:39:13.740Z,99528.56
2024-02-13T02:44:15.411Z,99526.10
2024-02-13T02:49:20.348Z,99532.73
2024-02-13T02:54:25.004Z,99541.48
2024-02-13T02:59:28.056Z,99550.94
2024-02-13T03:04:29.771Z,99556.77
2024-02-13T03:09:31.494Z,99562.96
2024-02-13T03:14:33.467Z,99570.60
2024-02-13T03:19:35.509Z,99574.00
2024-02-13T03:24:37.076Z,99582.58
2024-02-13T03:29:38.740Z,99590.15
2024-02-13T03:34:40.375Z,99593.27
2024-02-13T03:39:44.723Z,99599.75
2024-02-13T03:44:47.125Z,99608.06
2024-02-13T03:49:49.009Z,99611.64
2024-02-13T03:54:50.909Z,99611.36
2024-02-13T03:59:53.182Z,99618.73
2024-02-13T04:04:54.950Z,99628.48
2024-02-13T04:09:56.531Z,99633.19
2024-02-13T04:14:58.193Z,99639.25
2024-02-13T04:19:59.821Z,99648.17
2024-02-13T04:25:01.434Z,99656.61
2024-02-13T04:30:04.139Z,99661.27
2024-02-13T04:35:10.031Z,99669.00
2024-02-13T04:40:14.542Z,99676.21
2024-02-13T04:45:16.387Z,99685.86
2024-02-13T04:50:21.223Z,99689.92
2024-02-13T04:55:24.282Z,99694.75
2024-02-13T05:00:27.588Z,99697.88
2024-02-13T05:05:47.896Z,99704.60
2024-02-13T05:10:49.773Z,99711.15
2024-02-13T05:15:51.737Z,99720.08
2024-02-13T05:20:53.303Z,99730.20
2024-02-13T05:25:54.898Z,99738.25
2024-02-13T05:30:57.228Z,99755.21
2024-02-13T05:35:58.863Z,99761.08
2024-02-13T05:41:00.467Z,99776.40
2024-02-13T05:46:02.074Z,99784.98
2024-02-13T05:51:06.770Z,99791.88
2024-02-13T05:56:11.737Z,99801.70
2024-02-13T06:01:15.071Z,99808.40
2024-02-13T06:06:17.014Z,99821.70
2024-02-13T06:11:18.758Z,99824.28
2024-02-13T06:16:20.478Z,99838.13
2024-02-13T06:21:24.511Z,99843.95
2024-02-13T06:26:28.146Z,99849.77
2024-02-13T06:31:33.850Z,99857.07
2024-02-13T06:36:35.448Z,99867.66
2024-02-13T06:41:37.819Z,99875.13
2024-02-13T06:46:39.469Z,99884.49
2024-02-13T06:51:41.029Z,99897.77
2024-02-13T06:56:42.606Z,99906.59
2024-02-13T07:01:44.317Z,99915.93
2024-02-13T07:06:58.547Z,99920.88
2024-02-13T07:12:07.380Z,99923.30
2024-02-13T07:17:10.497Z,99931.27
2024-02-13T07:22:12.164Z,99942.81
2024-02-13T07:27:13.737Z,99946.85
2024-02-13T07:32:15.380Z,99953.35
2024-02-13T07:37:16.996Z,99961.09
2024-02-13T07:42:18.640Z,99962.79
2024-02-13T07:47:22.854Z,99972.52
2024-02-13T07:52:24.623Z,99981.48
2024-02-13T07:57:26.218Z,99982.32
2024-02-13T08:02:29.451Z,99987.08
2024-02-13T08:07:31.178Z,99994.91
2024-02-13T08:12:33.265Z,100001.98
2024-02-13T08:17:34.937Z,99997.94
2024-02-13T08:22:36.646Z,100004.13
2024-02-13T08:27:38.760Z,100011.69
2024-02-13T08:32:43.401Z,100016.28
2024-02-13T08:37:45.305Z,100025.27
2024-02-13T08:42:46.954Z,100027.18
2024-02-13T08:47:48.611Z,100032.21
2024-02-13T08:52:50.342Z,100042.59
2024-02-13T08:57:52.915Z,100042.30
2024-02-13T09:02:54.854Z,100048.23
2024-02-13T09:07:56.576Z,100053.41
2024-02-13T09:12:58.223Z,100056.98
2024-02-13T09:18:00.511Z,100063.31
2024-02-13T09:23:02.538Z,100070.45
2024-02-13T09:28:04.292Z,100078.51
2024-02-13T09:33:05.880Z,100082.48
2024-02-13T09:38:08.086Z,100094.52
2024-02-13T09:43:09.817Z,100100.83
2024-02-13T09:48:21.539Z,100103.06
2024-02-13T09:53:30.682Z,100103.61
2024-02-13T09:58:33.501Z,100112.92
2024-02-13T10:03:38.167Z,100118.09
2024-02-13T10:08:41.471Z,100126.55
2024-02-13T10:13:47.171Z,100126.47
2024-02-13T10:18:59.003Z,100127.98
2024-02-13T10:24:08.220Z,100131.05
2024-02-13T10:29:10.562Z,100131.39
2024-02-13T10:34:13.275Z,100136.42
2024-02-13T10:39:23.629Z,100139.61
2024-02-13T10:44:28.901Z,100144.22
2024-02-13T10:49:45.059Z,100149.05
2024-02-13T10:54:49.441Z,100156.90
2024-02-13T10:59:52.532Z,100159.79
2024-02-13T11:04:56.839Z,100162.18
2024-02-13T11:09:58.662Z,100165.12
2024-02-13T11:15:27.897Z,100166.16
2024-02-13T11:20:29.840Z,100171.16
2024-02-13T11:25:35.813Z,100169.33
2024-02-13T11:30:39.547Z,100172.04
2024-02-13T11:35:54.907Z,100178.08
2024-02-13T11:40:56.712Z,100177.16
2024-02-13T11:45:58.576Z,100184.39
2024-02-13T11:51:00.501Z,100188.73
2024-02-13T11:56:05.267Z,100194.85
2024-02-13T12:01:07.265Z,100199.63
2024-02-13T12:06:10.720Z,100201.89
2024-02-13T12:11:13.103Z,100205.77
2024-02-13T12:16:16.603Z,100222.05
2024-02-13T12:21:18.180Z,100225.85
2024-02-13T12:26:19.835Z,100223.05
2024-02-13T12:31:23.055Z,100230.41
2024-02-13T12:36:25.639Z,100230.08
2024-02-13T12:41:27.276Z,100239.30
2024-02-13T12:46:36.171Z,100240.83
2024-02-13T12:51:40.652Z,100246.38
2024-02-13T12:56:42.696Z,100252.19
2024-02-13T13:01:49.078Z,100251.91
2024-02-13T13:06:52.604Z,100257.50
2024-02-13T13:11:55.501Z,100261.59
2024-02-13T13:16:58.022Z,100264.77
2024-02-13T13:22:01.368Z,100273.22
2024-02-13T13:27:05.207Z,100279.73
2024-02-13T13:32:07.358Z,100291.33
2024-02-13T13:37:09.037Z,100289.90
2024-02-13T13:42:11.165Z,100295.74
2024-02-13T13:47:12.895Z,100296.82
2024-02-13T13:52:14.550Z,100302.31
2024-02-13T13:57:16.580Z,100304.17
2024-02-13T14:02:18.304Z,100316.02
2024-02-13T14:07:21.130Z,100318.96
2024-02-13T14:12:22.965Z,100330.95
2024-02-13T14:17:24.993Z,100341.00
2024-02-13T14:22:28.160Z,100360.70
2024-02-13T14:27:29.734Z,100362.02
2024-02-13T14:32:31.426Z,100372.71
2024-02-13T14:37:33.060Z,100376.50
2024-02-13T14:42:34.892Z,100387.43
2024-02-13T14:47:40.320Z,100388.71
2024-02-13T14:52:43.106Z,100393.89
2024-02-13T14:57:52.333Z,100400.48
2024-02-13T15:03:02.308Z,100412.91
2024-02-13T15:08:04.459Z,100416.25
2024-02-13T15:13:08.030Z,100428.80
2024-02-13T15:18:09.899Z,100431.71
2024-02-13T15:23:14.275Z,100436.16
2024-02-13T15:28:17.018Z,100445.10
2024-02-13T15:33:22.843Z,100457.95
2024-02-13T15:38:43.567Z,100461.86
2024-02-13T15:44:03.959Z,100476.40
2024-02-13T15:49:06.593Z,100479.15
2024-02-13T15:54:10.103Z,100483.63
2024-02-13T15:59:11.805Z,100491.52
2024-02-13T16:04:13.507Z,100496.99
2024-02-13T16:09:15.115Z,100504.68
2024-02-13T16:14:18.043Z,100516.98
2024-02-13T16:19:19.745Z,100525.34
2024-02-13T16:24:21.358Z,100541.71
2024-02-13T16:29:24.963Z,100547.53
2024-02-13T16:34:31.820Z,100551.11
2024-02-13T16:39:38.135Z,100558.95
2024-02-13T16:44:40.302Z,100562.70
2024-02-13T16:49:42.342Z,100572.09
2024-02-13T16:54:44.006Z,100575.34
2024-02-13T16:59:45.685Z,100584.89
2024-02-13T17:04:47.335Z,100591.73
2024-02-13T17:09:50.574Z,100598.20
2024-02-13T17:14:52.161Z,100603.50
2024-02-13T17:19:55.233Z,100614.59
2024-02-13T17:24:56.960Z,100621.41
2024-02-13T17:29:59.365Z,100626.19
2024-02-13T17:35:01.226Z,100631.65
2024-02-13T17:40:04.502Z,100633.87
2024-02-13T17:45:07.292Z,100638.82
2024-02-13T17:50:10.559Z,100639.16
2024-02-13T17:55:17.629Z,100640.70
2024-02-13T18:00:24.555Z,100641.54
2024-02-13T18:05:26.369Z,100645.30
2024-02-13T18:10:27.963Z,100649.40
2024-02-13T18:15:29.580Z,100654.52
2024-02-13T18:20:32.923Z,100653.67
2024-02-13T18:25:38.006Z,100654.85
2024-02-13T18:30:40.334Z,100653.67
2024-02-13T18:35:44.802Z,100664.25
2024-02-13T18:40:46.639Z,100671.59
2024-02-13T18:45:49.470Z,100677.73
2024-02-13T18:50:51.220Z,100677.38
2024-02-13T18:55:53.179Z,100680.27
2024-02-13T19:00:54.897Z,100684.54
2024-02-13T19:05:57.391Z,100688.29
2024-02-13T19:11:00.039Z,100689.48
2024-02-13T19:16:01.685Z,100692.55
2024-02-13T19:21:03.381Z,100694.09
2024-02-13T19:26:05.395Z,100696.98
2024-02-13T19:31:10.117Z,100701.78
2024-02-13T19:36:11.802Z,100709.95
2024-02-13T19:41:14.343Z,100721.04
2024-02-13T19:46:15.925Z,100723.77
2024-02-13T19:51:17.959Z,100732.30
2024-02-13T19:56:19.644Z,100739.13
2024-02-13T20:01:22.829Z,100737.42
2024-02-13T20:06:24.715Z,100740.98
2024-02-13T20:11:28.433Z,100743.05
2024-02-13T20:16:31.551Z,100744.75
2024-02-13T20:21:33.697Z,100739.98
2024-02-13T20:26:38.811Z,100739.98
2024-02-13T20:31:40.441Z,100744.92
2024-02-13T20:36:42.462Z,100743.73
2024-02-13T20:41:44.148Z,100746.80
2024-02-13T20:46:45.745Z,100747.48
2024-02-13T20:51:47.283Z,100753.28
2024-02-13T20:56:49.969Z,100749.54
2024-02-13T21:01:52.611Z,100753.63
2024-02-13T21:06:55.550Z,100757.35
2024-02-13T21:11:57.170Z,100759.06
2024-02-13T21:16:58.847Z,100767.59
2024-02-13T21:22:19.038Z,100764.36
2024-02-13T21:27:21.424Z,100776.80
2024-02-13T21:32:23.157Z,100781.56
2024-02-13T21:37:24.700Z,100788.23
2024-02-13T21:42:26.386Z,100787.70
2024-02-13T21:47:28.264Z,100786.84
2024-02-13T21:52:30.204Z,100790.25
2024-02-13T21:57:32.072Z,100790.77
2024-02-13T22:02:34.789Z,100789.05
2024-02-13T22:07:38.908Z,100790.93
2024-02-13T22:12:42.964Z,100791.42
2024-02-13T22:17:46.179Z,100795.35
2024-02-13T22:22:47.834Z,100798.08
2024-02-13T22:27:49.361Z,100805.04
2024-02-13T22:32:52.811Z,100810.99
2024-02-13T22:37:55.064Z,100814.75
2024-02-13T22:42:56.654Z,100818.15
2024-02-13T22:48:03.213Z,100822.91
2024-02-13T22:53:05.145Z,100827.67
2024-02-13T22:58:07.091Z,100833.81
2024-02-13T23:03:09.364Z,100831.42
2024-02-13T23:08:11.137Z,100836.36
2024-02-13T23:13:14.099Z,100838.94
2024-02-13T23:18:16.283Z,100843.86
2024-02-13T23:23:18.396Z,100845.23
2024-02-13T23:28:20.149Z,100849.14
2024-02-13T23:33:21.883Z,100854.77
2024-02-13T23:38:23.747Z,100862.46
2024-02-13T23:43:26.017Z,100865.20
2024-02-13T23:48:27.698Z,100866.90
2024-02-13T23:53:29.804Z,100870.13
2024-02-13T23:58:33.519Z,100876.61
